Time;durP1;ratioP1;P1;durP2;ratioP2;P2;SDS_P1;SDS_P2;PMS_P1;PMS_P2;Temp;Humidity;BMP_temperature;BMP_pressure;BME280_temperature;BME280_humidity;BME280_pressure;Samples;Min_cycle;Max_cycle;Signal;HPM_P1;HPM_P2
2022/01/07 00:01:22;;;;;;;11.43;5.93;;;;;;;-0.09;75.87;96989.97;4937188;29;20055;-79
2022/01/07 00:03:50;;;;;;;14.20;7.00;;;;;;;-0.10;75.12;96980.59;4937227;29;20087;-77
2022/01/07 00:06:17;;;;;;;14.25;6.47;;;;;;;-0.13;74.65;96988.53;4936336;29;20055;-79
2022/01/07 00:08:46;;;;;;;13.10;5.70;;;;;;;-0.15;74.39;96985.25;4937125;29;20078;-79
2022/01/07 00:11:14;;;;;;;11.35;5.70;;;;;;;-0.15;75.28;96984.41;4936867;29;20051;-77
2022/01/07 00:13:41;;;;;;;9.40;5.53;;;;;;;-0.13;75.58;96980.00;4936694;29;20078;-79
2022/01/07 00:16:11;;;;;;;8.38;5.15;;;;;;;-0.10;75.80;96979.78;4936697;29;20044;-79
2022/01/07 00:18:41;;;;;;;10.18;5.65;;;;;;;-0.06;76.97;96979.47;4936986;29;20056;-78
2022/01/07 00:21:09;;;;;;;13.48;6.35;;;;;;;-0.05;75.57;96972.59;4936676;29;20103;-78
2022/01/07 00:23:36;;;;;;;14.23;6.75;;;;;;;-0.13;74.63;96956.91;4936990;29;20462;-78
2022/01/07 00:26:05;;;;;;;21.98;8.60;;;;;;;-0.18;74.40;96966.69;4936471;29;20056;-77
2022/01/07 00:28:33;;;;;;;17.73;7.88;;;;;;;-0.16;74.60;96957.94;4936968;29;20047;-77
2022/01/07 00:31:00;;;;;;;20.35;8.27;;;;;;;-0.20;73.86;96948.81;4936851;29;20450;-78
2022/01/07 00:33:28;;;;;;;18.25;7.90;;;;;;;-0.24;73.93;96942.28;4936652;29;20056;-78
2022/01/07 00:35:56;;;;;;;17.65;8.00;;;;;;;-0.31;73.92;96946.19;4936880;29;20454;-78
2022/01/07 00:38:24;;;;;;;16.33;7.65;;;;;;;-0.36;74.06;96946.50;4936521;29;20051;-79
2022/01/07 00:40:51;;;;;;;12.45;6.00;;;;;;;-0.43;74.25;96942.75;4936567;29;20054;-79
2022/01/07 00:43:20;;;;;;;15.10;5.97;;;;;;;-0.48;73.93;96940.50;4936753;29;20107;-77
2022/01/07 00:45:48;;;;;;;14.93;5.68;;;;;;;-0.51;74.25;96937.31;4936337;29;20056;-77
2022/01/07 00:48:15;;;;;;;10.77;5.47;;;;;;;-0.52;74.19;96933.94;4936485;29;20060;-78
2022/01/07 00:50:43;;;;;;;10.27;5.18;;;;;;;-0.58;74.18;96934.34;4936007;29;20144;-77
2022/01/07 00:53:10;;;;;;;9.55;5.45;;;;;;;-0.66;74.25;96939.16;4936334;29;20051;-78
2022/01/07 00:55:38;;;;;;;9.45;4.85;;;;;;;-0.72;74.46;96945.53;4936163;29;20082;-79
2022/01/07 00:58:05;;;;;;;11.35;5.50;;;;;;;-0.71;74.91;96942.03;4937141;29;20060;-80
2022/01/07 01:00:34;;;;;;;10.27;4.80;;;;;;;-0.65;75.19;96943.38;4936264;29;20062;-77
2022/01/07 01:03:02;;;;;;;10.02;5.32;;;;;;;-0.62;74.51;96940.59;4936291;29;20055;-79
2022/01/07 01:05:32;;;;;;;12.50;5.20;;;;;;;-0.63;74.57;96944.09;4935959;29;20516;-79
2022/01/07 01:08:00;;;;;;;10.00;5.78;;;;;;;-0.58;74.67;96952.28;4936080;29;20058;-78
2022/01/07 01:10:28;;;;;;;12.20;6.07;;;;;;;-0.53;74.27;96942.53;4936080;29;20425;-78
2022/01/07 01:12:56;;;;;;;15.27;5.75;;;;;;;-0.53;74.44;96945.09;4936025;29;20055;-78
2022/01/07 01:15:26;;;;;;;10.57;5.40;;;;;;;-0.49;74.12;96949.09;4936507;29;20047;-79
2022/01/07 01:17:58;;;;;;;12.77;4.75;;;;;;;-0.51;73.48;96937.31;4935832;29;20506;-79
2022/01/07 01:20:26;;;;;;;8.50;4.20;;;;;;;-0.59;73.48;96934.44;4936494;29;20059;-79
2022/01/07 01:22:54;;;;;;;7.25;4.15;;;;;;;-0.69;73.76;96936.81;4936521;29;20527;-79
2022/01/07 01:25:21;;;;;;;9.80;4.50;;;;;;;-0.77;73.60;96931.38;4936773;29;20529;-79
2022/01/07 01:27:49;;;;;;;9.25;5.13;;;;;;;-0.88;73.94;96930.34;4936419;29;20059;-80
2022/01/07 01:30:18;;;;;;;7.18;3.72;;;;;;;-0.96;74.13;96927.50;4935967;29;20052;-78
2022/01/07 01:32:47;;;;;;;11.38;4.03;;;;;;;-1.01;74.27;96929.53;4935878;29;20059;-78
2022/01/07 01:35:17;;;;;;;8.80;4.00;;;;;;;-1.06;74.25;96929.03;4935949;29;20051;-80
2022/01/07 01:37:45;;;;;;;12.30;5.00;;;;;;;-1.06;74.59;96927.28;4936019;29;20063;-80
2022/01/07 01:40:13;;;;;;;9.15;3.83;;;;;;;-1.04;74.57;96924.63;4935703;29;20510;-80
2022/01/07 01:42:40;;;;;;;7.93;4.32;;;;;;;-0.97;75.40;96925.84;4936149;29;20051;-77
2022/01/07 01:45:10;;;;;;;6.55;3.90;;;;;;;-0.88;75.38;96930.34;4935656;29;20063;-79
2022/01/07 01:47:38;;;;;;;7.85;4.65;;;;;;;-0.87;74.41;96924.31;4935288;29;20059;-79
2022/01/07 01:50:09;;;;;;;10.57;3.90;;;;;;;-0.94;74.25;96915.41;4935900;29;20055;-79
2022/01/07 01:52:38;;;;;;;7.05;3.97;;;;;;;-0.94;74.76;96910.31;4935488;29;20056;-77
2022/01/07 01:55:07;;;;;;;7.13;4.30;;;;;;;-0.86;75.71;96904.66;4935275;29;20051;-78
2022/01/07 01:57:34;;;;;;;13.27;6.00;;;;;;;-0.76;75.61;96907.44;4935277;29;20052;-78
2022/01/07 02:00:04;;;;;;;12.13;5.32;;;;;;;-0.74;74.17;96908.94;4935422;29;20107;-79
2022/01/07 02:02:32;;;;;;;11.07;4.38;;;;;;;-0.79;74.02;96902.50;4935597;29;20058;-78
2022/01/07 02:05:00;;;;;;;10.75;5.47;;;;;;;-0.83;74.18;96909.59;4936080;29;20052;-78
2022/01/07 02:07:27;;;;;;;9.55;5.63;;;;;;;-0.79;75.38;96899.94;4935319;29;20051;-79
2022/01/07 02:09:56;;;;;;;11.00;4.35;;;;;;;-0.76;74.97;96900.56;4935134;29;20055;-78
2022/01/07 02:12:24;;;;;;;16.58;5.03;;;;;;;-0.76;73.98;96902.31;4935541;29;20078;-77
2022/01/07 02:14:52;;;;;;;9.85;4.90;;;;;;;-0.80;73.68;96903.44;4935495;29;20063;-78
2022/01/07 02:17:20;;;;;;;11.90;5.03;;;;;;;-0.77;75.24;96898.09;4935070;29;20059;-79
2022/01/07 02:19:49;;;;;;;10.50;4.65;;;;;;;-0.68;76.40;96889.75;4970910;23;20059;-75
2022/01/07 02:22:17;;;;;;;11.02;4.97;;;;;;;-0.57;76.89;96886.47;4953897;28;20062;-75
2022/01/07 02:24:45;;;;;;;9.48;5.00;;;;;;;-0.50;75.79;96883.41;4954050;29;20548;-76
2022/01/07 02:27:14;;;;;;;8.60;4.57;;;;;;;-0.54;73.97;96871.72;4953730;29;20468;-77
2022/01/07 02:29:44;;;;;;;9.30;4.13;;;;;;;-0.63;74.25;96873.16;4939804;29;20051;-73
2022/01/07 02:32:12;;;;;;;8.88;4.43;;;;;;;-0.62;75.05;96874.78;4938473;29;20063;-73
2022/01/07 02:34:39;;;;;;;9.02;4.75;;;;;;;-0.58;74.77;96874.59;4938587;29;20059;-73
2022/01/07 02:37:09;;;;;;;10.85;5.13;;;;;;;-0.58;74.04;96879.72;4938656;29;20454;-73
2022/01/07 02:39:36;;;;;;;8.35;4.32;;;;;;;-0.61;74.39;96878.19;4938638;29;20051;-75
2022/01/07 02:42:05;;;;;;;8.98;3.70;;;;;;;-0.63;73.98;96877.47;4938450;29;20052;-73
2022/01/07 02:44:33;;;;;;;12.20;4.70;;;;;;;-0.61;74.17;96875.63;4938637;29;20561;-74
2022/01/07 02:47:01;;;;;;;10.77;5.65;;;;;;;-0.54;75.09;96881.97;4937833;29;20074;-73
2022/01/07 02:49:29;;;;;;;7.43;4.68;;;;;;;-0.45;75.92;96881.31;4938209;29;20517;-76
2022/01/07 02:51:56;;;;;;;8.95;4.85;;;;;;;-0.40;76.27;96880.19;4938189;29;20062;-73
2022/01/07 02:54:25;;;;;;;11.90;5.35;;;;;;;-0.36;75.54;96871.38;4938063;29;20575;-74
2022/01/07 02:56:52;;;;;;;10.65;4.53;;;;;;;-0.31;75.46;96866.72;4937981;29;20059;-74
2022/01/07 02:59:20;;;;;;;6.78;4.47;;;;;;;-0.32;74.27;96875.34;4938029;29;20398;-73
2022/01/07 03:01:48;;;;;;;9.90;5.18;;;;;;;-0.37;73.74;96870.56;4937917;29;20513;-75
2022/01/07 03:04:16;;;;;;;10.48;5.18;;;;;;;-0.45;73.48;96873.63;4937002;29;20059;-73
2022/01/07 03:06:44;;;;;;;8.95;4.70;;;;;;;-0.56;73.00;96868.44;4935964;29;20422;-73
2022/01/07 03:09:11;;;;;;;12.02;5.72;;;;;;;-0.69;72.90;96859.97;4936125;29;20051;-74
2022/01/07 03:11:40;;;;;;;10.55;5.72;;;;;;;-0.82;73.12;96848.94;4936286;29;20060;-74
2022/01/07 03:14:08;;;;;;;7.95;5.47;;;;;;;-0.91;74.15;96853.75;4937358;29;20047;-76
2022/01/07 03:16:36;;;;;;;11.25;6.32;;;;;;;-0.96;75.31;96850.69;4937788;29;20047;-73
2022/01/07 03:19:03;;;;;;;8.52;5.55;;;;;;;-1.00;75.05;96849.25;4937856;29;20075;-75
2022/01/07 03:21:31;;;;;;;10.18;5.80;;;;;;;-1.05;73.88;96848.72;4936505;29;20063;-74
2022/01/07 03:23:58;;;;;;;10.63;5.72;;;;;;;-1.10;74.01;96853.34;4935748;29;20040;-72
2022/01/07 03:26:26;;;;;;;12.18;7.13;;;;;;;-1.19;74.15;96848.84;4935472;29;20055;-73
2022/01/07 03:28:54;;;;;;;13.00;7.18;;;;;;;-1.34;73.79;96854.06;4935718;29;20063;-73
2022/01/07 03:31:22;;;;;;;10.80;6.80;;;;;;;-1.46;73.77;96839.53;4936069;29;20063;-73
2022/01/07 03:33:50;;;;;;;12.48;7.28;;;;;;;-1.59;73.87;96831.03;4935781;29;20099;-73
2022/01/07 03:36:17;;;;;;;13.63;8.18;;;;;;;-1.69;74.40;96839.28;4936414;29;20051;-73
2022/01/07 03:38:44;;;;;;;12.48;6.88;;;;;;;-1.79;74.72;96840.81;4937454;29;20052;-73
2022/01/07 03:41:12;;;;;;;12.85;7.20;;;;;;;-1.89;74.67;96847.44;4936340;29;20052;-73
2022/01/07 03:43:39;;;;;;;11.88;7.72;;;;;;;-1.97;75.00;96849.66;4937331;29;20062;-73
2022/01/07 03:46:08;;;;;;;13.13;7.15;;;;;;;-2.00;75.14;96849.84;4937107;29;20052;-73
2022/01/07 03:48:36;;;;;;;11.55;7.70;;;;;;;-2.00;75.25;96849.84;4937535;29;20055;-73
2022/01/07 03:51:04;;;;;;;13.60;8.32;;;;;;;-1.99;76.36;96848.91;4937324;29;20573;-73
2022/01/07 03:53:31;;;;;;;15.25;8.18;;;;;;;-1.95;77.13;96850.38;4937283;29;20059;-73
2022/01/07 03:55:59;;;;;;;12.18;7.82;;;;;;;-1.98;76.26;96855.69;4936958;29;20060;-73
2022/01/07 03:58:26;;;;;;;13.48;7.05;;;;;;;-2.07;75.93;96849.44;4937310;29;20051;-73
2022/01/07 04:00:54;;;;;;;14.05;7.53;;;;;;;-2.10;76.25;96855.56;4937151;29;20059;-73
2022/01/07 04:03:23;;;;;;;11.85;6.68;;;;;;;-2.05;76.34;96857.00;4936891;29;20055;-73
2022/01/07 04:05:51;;;;;;;12.20;6.88;;;;;;;-2.04;76.09;96856.06;4936730;29;20062;-73
2022/01/07 04:08:18;;;;;;;13.45;7.38;;;;;;;-2.02;76.15;96851.69;4936836;29;20055;-73
2022/01/07 04:10:46;;;;;;;12.75;7.40;;;;;;;-1.98;76.16;96846.28;4937053;29;20060;-73
2022/01/07 04:13:13;;;;;;;12.00;7.13;;;;;;;-2.00;75.94;96855.78;4936937;29;20043;-73
2022/01/07 04:15:41;;;;;;;12.10;6.53;;;;;;;-2.03;75.92;96856.00;4936927;29;20446;-73
2022/01/07 04:18:08;;;;;;;11.25;6.90;;;;;;;-2.01;76.20;96850.75;4936538;29;20071;-73
2022/01/07 04:20:38;;;;;;;10.38;7.25;;;;;;;-1.99;75.70;96848.91;4937031;29;20067;-73
2022/01/07 04:23:07;;;;;;;11.30;7.22;;;;;;;-1.99;76.07;96859.16;4936897;29;20051;-73
2022/01/07 04:25:35;;;;;;;12.38;6.72;;;;;;;-1.98;76.09;96853.13;4937611;29;20059;-73
2022/01/07 04:28:05;;;;;;;10.32;6.68;;;;;;;-1.95;75.77;96855.47;4946062;29;20048;-73
2022/01/07 04:30:35;;;;;;;9.82;6.25;;;;;;;-1.96;75.54;96858.97;4943861;29;20058;-72
2022/01/07 04:33:03;;;;;;;10.55;6.80;;;;;;;-1.99;75.70;96857.44;4942765;29;20051;-72
2022/01/07 04:35:33;;;;;;;11.20;7.03;;;;;;;-1.96;75.87;96859.78;4942840;29;20422;-72
2022/01/07 04:38:02;;;;;;;11.30;6.57;;;;;;;-1.91;75.78;96862.03;4941950;29;20058;-73
2022/01/07 04:40:29;;;;;;;12.27;7.10;;;;;;;-1.96;75.56;96854.66;4942074;29;20055;-73
2022/01/07 04:42:57;;;;;;;13.88;7.40;;;;;;;-2.01;75.89;96860.97;4941752;29;20048;-72
2022/01/07 04:45:24;;;;;;;11.88;7.15;;;;;;;-2.05;75.56;96862.13;4942139;29;20052;-73
2022/01/07 04:47:52;;;;;;;13.27;6.88;;;;;;;-2.09;75.79;96851.25;4940547;29;20056;-73
2022/01/07 04:50:22;;;;;;;10.30;6.78;;;;;;;-2.09;76.15;96858.94;4938869;29;20438;-72
2022/01/07 04:52:50;;;;;;;12.60;7.53;;;;;;;-2.03;76.43;96852.59;4937808;29;20059;-73
2022/01/07 04:55:22;;;;;;;13.75;7.85;;;;;;;-1.94;76.49;96857.94;4937640;29;20058;-73
2022/01/07 04:57:50;;;;;;;12.98;7.05;;;;;;;-1.82;76.30;96853.78;4936613;29;20502;-72
2022/01/07 05:00:19;;;;;;;11.00;6.70;;;;;;;-1.76;75.90;96848.28;4936463;29;20536;-73
2022/01/07 05:02:47;;;;;;;10.32;6.60;;;;;;;-1.68;75.70;96846.03;4936746;29;20067;-73
2022/01/07 05:05:15;;;;;;;13.25;7.60;;;;;;;-1.70;75.13;96835.09;4936665;29;20090;-73
2022/01/07 05:07:43;;;;;;;13.02;7.38;;;;;;;-1.71;75.32;96843.66;4936297;29;20054;-74
2022/01/07 05:10:13;;;;;;;12.02;7.43;;;;;;;-1.77;75.14;96841.53;4936993;29;20086;-73
2022/01/07 05:12:43;;;;;;;11.13;6.70;;;;;;;-1.83;75.28;96841.94;4936957;29;20051;-73
2022/01/07 05:15:11;;;;;;;14.68;6.65;;;;;;;-1.85;75.35;96841.19;4943628;29;20506;-73
2022/01/07 05:17:39;;;;;;;10.30;6.47;;;;;;;-1.86;75.54;96837.00;4951399;29;20047;-73
2022/01/07 05:20:07;;;;;;;12.18;6.75;;;;;;;-1.90;75.56;96833.84;4946057;29;20470;-73
2022/01/07 05:22:35;;;;;;;11.07;6.85;;;;;;;-1.96;75.69;96828.28;4940936;29;20052;-72
2022/01/07 05:25:03;;;;;;;12.05;6.88;;;;;;;-1.93;75.75;96835.75;4941021;29;20063;-72
2022/01/07 05:27:31;;;;;;;10.85;6.65;;;;;;;-1.88;75.52;96838.81;4939902;29;20066;-72
2022/01/07 05:30:00;;;;;;;11.07;6.50;;;;;;;-1.85;75.35;96838.66;4939336;29;20055;-73
2022/01/07 05:32:27;;;;;;;9.35;6.53;;;;;;;-1.83;75.43;96841.94;4937767;29;20052;-73
2022/01/07 05:34:55;;;;;;;11.63;6.85;;;;;;;-1.77;75.83;96838.97;4937234;29;20056;-73
2022/01/07 05:37:22;;;;;;;10.90;6.43;;;;;;;-1.72;75.61;96836.94;4936240;29;20052;-73
2022/01/07 05:39:50;;;;;;;11.98;5.97;;;;;;;-1.67;75.29;96832.31;4935674;29;20052;-73
2022/01/07 05:42:17;;;;;;;11.60;6.25;;;;;;;-1.68;74.83;96840.94;4935674;29;20051;-74
2022/01/07 05:44:45;;;;;;;10.20;6.70;;;;;;;-1.66;75.23;96841.66;4935635;29;20536;-73
2022/01/07 05:47:13;;;;;;;13.40;7.53;;;;;;;-1.62;75.17;96841.44;4935217;29;20078;-73
2022/01/07 05:49:41;;;;;;;10.75;6.65;;;;;;;-1.58;75.49;96840.31;4935766;29;20055;-73
2022/01/07 05:52:09;;;;;;;14.13;7.55;;;;;;;-1.51;76.16;96844.09;4935265;29;20055;-73
2022/01/07 05:54:36;;;;;;;12.57;6.82;;;;;;;-1.45;75.78;96838.59;4935269;29;20063;-73
2022/01/07 05:57:05;;;;;;;13.68;7.85;;;;;;;-1.45;75.13;96838.59;4934945;29;20059;-73
2022/01/07 05:59:33;;;;;;;13.73;8.02;;;;;;;-1.43;75.07;96838.50;4935071;29;20052;-73
2022/01/07 06:02:02;;;;;;;12.98;8.18;;;;;;;-1.40;75.07;96840.84;4935335;29;20478;-73
2022/01/07 06:04:31;;;;;;;14.77;7.93;;;;;;;-1.33;75.61;96842.91;4934458;29;20056;-74
2022/01/07 06:06:59;;;;;;;13.13;7.50;;;;;;;-1.28;75.04;96838.28;4934635;29;20524;-73
2022/01/07 06:09:26;;;;;;;12.23;8.30;;;;;;;-1.29;74.73;96834.13;4935097;29;20052;-74
2022/01/07 06:11:54;;;;;;;14.88;7.75;;;;;;;-1.26;75.61;96846.69;4935009;29;20055;-74
2022/01/07 06:14:22;;;;;;;11.18;6.97;;;;;;;-1.21;75.58;96840.44;4935176;29;20066;-75
2022/01/07 06:16:49;;;;;;;14.00;8.23;;;;;;;-1.16;75.52;96833.28;4934662;29;20051;-74
2022/01/07 06:19:17;;;;;;;14.00;7.68;;;;;;;-1.12;75.11;96834.72;4934886;29;20083;-75
2022/01/07 06:21:45;;;;;;;14.48;8.27;;;;;;;-1.15;74.92;96828.06;4934757;29;20063;-73
2022/01/07 06:24:13;;;;;;;15.23;8.82;;;;;;;-1.15;74.93;96833.19;4934877;29;20047;-73
2022/01/07 06:26:40;;;;;;;16.60;8.43;;;;;;;-1.13;74.97;96835.63;4934502;29;20066;-73
2022/01/07 06:29:08;;;;;;;13.88;7.95;;;;;;;-1.15;74.72;96829.81;4935123;29;20048;-74
2022/01/07 06:31:35;;;;;;;13.07;7.82;;;;;;;-1.17;74.37;96837.56;4934856;29;20059;-75
2022/01/07 06:34:03;;;;;;;14.23;8.82;;;;;;;-1.19;74.18;96843.72;4934513;29;20565;-75
2022/01/07 06:36:31;;;;;;;14.27;8.35;;;;;;;-1.18;74.53;96847.91;4934545;29;20502;-75
2022/01/07 06:38:59;;;;;;;15.35;8.95;;;;;;;-1.14;74.18;96849.34;4934494;29;20518;-76
2022/01/07 06:41:27;;;;;;;16.35;8.73;;;;;;;-1.11;74.78;96854.28;4934651;29;20059;-77
2022/01/07 06:43:54;;;;;;;17.65;9.55;;;;;;;-1.04;74.95;96852.94;4934774;29;20052;-73
2022/01/07 06:46:22;;;;;;;14.65;8.63;;;;;;;-0.98;75.77;96852.53;4934885;29;20055;-75
2022/01/07 06:48:50;;;;;;;13.07;8.38;;;;;;;-0.89;76.11;96857.03;4934742;29;20060;-78
2022/01/07 06:51:17;;;;;;;13.80;8.43;;;;;;;-0.83;75.17;96853.25;4935709;29;20048;-73
2022/01/07 06:53:45;;;;;;;14.82;8.13;;;;;;;-0.83;74.54;96845.56;4935196;29;20056;-74
2022/01/07 06:56:14;;;;;;;15.77;8.90;;;;;;;-0.81;74.32;96848.00;4934792;29;20051;-75
2022/01/07 06:58:42;;;;;;;17.52;9.10;;;;;;;-0.81;74.03;96843.69;4935368;29;20059;-74
2022/01/07 07:01:09;;;;;;;16.30;8.77;;;;;;;-0.82;74.03;96846.38;4935003;29;20060;-75
2022/01/07 07:03:39;;;;;;;19.35;9.80;;;;;;;-0.79;74.77;96846.13;4934932;29;20087;-74
2022/01/07 07:06:07;;;;;;;14.15;8.00;;;;;;;-0.72;74.54;96842.22;4934663;29;20445;-78
2022/01/07 07:08:35;;;;;;;21.60;10.70;;;;;;;-0.66;75.75;96837.53;4934884;29;20059;-78
2022/01/07 07:11:03;;;;;;;16.67;8.90;;;;;;;-0.63;74.66;96837.31;4934724;29;20054;-77
2022/01/07 07:13:32;;;;;;;17.83;9.90;;;;;;;-0.59;75.55;96837.91;4934732;29;20502;-75
2022/01/07 07:16:00;;;;;;;17.23;9.80;;;;;;;-0.60;75.46;96835.44;4937032;29;20048;-74
2022/01/07 07:18:28;;;;;;;16.90;10.07;;;;;;;-0.65;74.32;96830.66;4938262;29;20134;-77
2022/01/07 07:20:55;;;;;;;17.45;9.10;;;;;;;-0.73;73.38;96835.47;4937393;29;20069;-74
2022/01/07 07:23:23;;;;;;;15.85;8.90;;;;;;;-0.79;73.93;96830.78;4936846;29;20055;-73
2022/01/07 07:25:51;;;;;;;15.48;9.40;;;;;;;-0.79;74.38;96835.91;4936316;29;20052;-76
2022/01/07 07:28:19;;;;;;;16.65;8.45;;;;;;;-0.79;74.06;96830.78;4937982;29;20055;-75
2022/01/07 07:30:48;;;;;;;19.38;10.48;;;;;;;-0.80;74.33;96829.97;4938178;29;20055;-75
2022/01/07 07:33:31;;;;;;;16.15;8.40;;;;;;;-0.77;74.23;96828.94;4938102;29;20055;-75
2022/01/07 07:38:46;;;;;;;14.02;7.65;;;;;;;-0.70;74.50;96828.41;4941725;29;20106;-74
2022/01/07 07:41:13;;;;;;;15.85;9.23;;;;;;;-0.75;73.88;96827.06;4941381;29;20062;-76
2022/01/07 07:43:42;;;;;;;17.17;9.00;;;;;;;-0.81;73.71;96824.94;4940373;29;20055;-76
2022/01/07 07:46:11;;;;;;;30.80;16.15;;;;;;;-0.82;74.96;96820.75;4937605;29;20328;-76
2022/01/07 07:48:39;;;;;;;16.83;9.18;;;;;;;-0.81;74.29;96814.69;4937771;29;20051;-76
2022/01/07 07:51:06;;;;;;;14.18;7.70;;;;;;;-0.81;73.78;96817.25;4937775;29;20055;-74
2022/01/07 07:53:34;;;;;;;18.77;8.23;;;;;;;-0.84;73.65;96813.16;4937993;29;20477;-74
2022/01/07 07:56:02;;;;;;;12.68;7.50;;;;;;;-0.89;73.28;96816.03;4937148;29;20047;-75
2022/01/07 07:58:29;;;;;;;17.08;9.00;;;;;;;-0.90;74.37;96809.28;4937269;29;20051;-76
2022/01/07 08:00:57;;;;;;;18.70;10.55;;;;;;;-0.89;74.50;96805.81;4937175;29;20048;-75
2022/01/07 08:03:26;;;;;;;17.98;9.90;;;;;;;-0.88;75.71;96807.44;4937147;29;20056;-75
2022/01/07 08:05:54;;;;;;;15.93;9.45;;;;;;;-0.88;74.69;96809.97;4936426;29;20047;-77
2022/01/07 08:08:27;;;;;;;18.95;9.70;;;;;;;-0.87;74.23;96811.63;4937108;29;20048;-74
2022/01/07 08:10:58;;;;;;;20.58;10.73;;;;;;;-0.87;74.28;96806.50;4936870;29;20071;-75
2022/01/07 08:13:28;;;;;;;16.67;9.90;;;;;;;-0.94;73.85;96792.50;4936997;29;20059;-74
2022/01/07 08:15:59;;;;;;;15.63;8.20;;;;;;;-0.98;73.89;96803.88;4936205;29;20055;-76
2022/01/07 08:18:29;;;;;;;17.48;9.63;;;;;;;-1.03;74.29;96793.13;4936497;29;20056;-73
2022/01/07 08:21:01;;;;;;;20.13;10.45;;;;;;;-1.03;74.17;96790.56;4936981;29;20052;-73
2022/01/07 08:23:29;;;;;;;20.08;9.93;;;;;;;-1.01;75.33;96790.47;4936854;29;20051;-73
2022/01/07 08:25:57;;;;;;;15.55;9.07;;;;;;;-0.94;74.80;96782.25;4936166;29;20490;-74
2022/01/07 08:28:31;;;;;;;16.52;9.23;;;;;;;-0.92;74.47;96775.28;4936323;29;20068;-77
2022/01/07 08:31:23;;;;;;;18.27;9.82;;;;;;;-0.90;74.54;96767.47;4936836;29;20058;-74
2022/01/07 08:36:36;;;;;;;13.98;8.90;;;;;;;-0.80;74.05;96772.81;4936579;29;20065;-75
2022/01/07 08:39:06;;;;;;;15.52;9.93;;;;;;;-0.74;74.78;96767.25;4970609;23;20066;-78
2022/01/07 08:41:35;;;;;;;19.70;9.88;;;;;;;-0.66;74.96;96767.50;4956238;29;20055;-77
2022/01/07 08:44:03;;;;;;;16.83;9.43;;;;;;;-0.62;75.19;96758.69;4956579;29;20417;-83
2022/01/07 08:46:31;;;;;;;16.17;8.32;;;;;;;-0.57;74.62;96759.16;4957984;29;20078;-79
2022/01/07 08:49:01;;;;;;;16.75;9.65;;;;;;;-0.54;74.42;96760.72;4946301;29;20051;-80
2022/01/07 08:51:28;;;;;;;17.83;9.93;;;;;;;-0.53;74.12;96762.34;4938225;29;20052;-80
2022/01/07 08:53:57;;;;;;;14.88;9.10;;;;;;;-0.52;74.57;96762.25;4937635;29;20062;-78
2022/01/07 08:56:25;;;;;;;15.40;9.52;;;;;;;-0.47;74.89;96760.16;4938821;29;20051;-76
2022/01/07 08:58:53;;;;;;;17.50;9.80;;;;;;;-0.38;75.67;96763.81;4937217;29;20466;-79
2022/01/07 09:01:21;;;;;;;15.68;10.05;;;;;;;-0.29;75.43;96757.22;4937868;29;20055;-79
2022/01/07 09:03:49;;;;;;;16.38;9.60;;;;;;;-0.25;74.76;96763.75;4937666;29;20051;-76
2022/01/07 09:06:18;;;;;;;15.23;9.80;;;;;;;-0.23;74.25;96762.72;4935701;29;20055;-77
2022/01/07 09:08:46;;;;;;;13.00;8.40;;;;;;;-0.20;74.64;96753.97;4935869;29;20703;-79
2022/01/07 09:11:14;;;;;;;13.50;8.85;;;;;;;-0.15;74.68;96753.63;4935996;29;20498;-78
2022/01/07 09:13:41;;;;;;;15.30;9.13;;;;;;;-0.05;75.60;96754.63;4936403;29;20054;-80
2022/01/07 09:16:09;;;;;;;18.40;8.90;;;;;;;0.08;76.09;96754.53;4937351;29;20044;-79
2022/01/07 09:18:36;;;;;;;12.70;8.75;;;;;;;0.19;75.42;96757.13;4937489;29;20055;-77
2022/01/07 09:21:09;;;;;;;16.40;9.40;;;;;;;0.28;75.31;96756.44;4937911;29;20102;-80
2022/01/07 09:23:41;;;;;;;15.27;9.43;;;;;;;0.36;75.50;96763.59;4937395;29;20078;-78
2022/01/07 09:26:09;;;;;;;16.50;10.27;;;;;;;0.38;75.07;96757.41;4937916;29;20048;-79
2022/01/07 09:28:37;;;;;;;13.73;8.18;;;;;;;0.40;74.06;96758.09;4938636;29;20051;-80
2022/01/07 09:31:04;;;;;;;15.48;9.32;;;;;;;0.45;74.88;96762.09;4938944;29;20059;-79
2022/01/07 09:33:32;;;;;;;15.73;10.15;;;;;;;0.54;75.70;96756.25;4937568;29;20048;-80
2022/01/07 09:36:20;;;;;;;21.17;12.20;;;;;;;0.64;74.59;96761.53;4936616;29;20051;-79
2022/01/07 09:38:49;;;;;;;19.52;11.32;;;;;;;0.68;74.24;96753.47;4936271;29;20437;-78
2022/01/07 09:41:16;;;;;;;17.13;10.13;;;;;;;0.71;74.72;96758.38;4939029;29;20062;-79
2022/01/07 09:43:45;;;;;;;15.80;8.75;;;;;;;0.76;74.35;96756.25;4938428;29;20056;-88
2022/01/07 09:46:15;;;;;;;14.93;8.95;;;;;;;0.79;73.64;96758.59;4937863;29;20517;-86
2022/01/07 09:48:43;;;;;;;15.77;9.93;;;;;;;0.82;73.43;96750.66;4938023;29;20052;-89
2022/01/07 09:51:12;;;;;;;16.58;9.75;;;;;;;0.81;74.08;96754.16;4938747;29;20062;-83
2022/01/07 09:53:40;;;;;;;12.95;8.00;;;;;;;0.86;72.91;96747.88;4939026;29;20055;-91
2022/01/07 09:56:09;;;;;;;13.02;8.93;;;;;;;0.89;72.00;96751.00;4937053;29;20052;-79
2022/01/07 09:58:38;;;;;;;13.35;8.85;;;;;;;0.96;72.96;96748.78;4938731;29;20623;-79
2022/01/07 10:01:09;;;;;;;18.27;9.15;;;;;;;1.04;72.64;96743.88;4939424;29;20056;-84
2022/01/07 10:03:39;;;;;;;15.80;9.05;;;;;;;1.07;72.25;96728.22;4940159;29;20075;-87
2022/01/07 10:06:20;;;;;;;17.17;9.85;;;;;;;1.17;74.61;96729.13;4938989;29;20518;-87
2022/01/07 10:09:03;;;;;;;12.90;9.00;;;;;;;1.26;74.04;96716.50;4938254;29;20051;-87
2022/01/07 10:11:33;;;;;;;14.95;9.98;;;;;;;1.37;74.25;96719.84;4939474;29;20056;-86
2022/01/07 10:14:16;;;;;;;16.25;9.57;;;;;;;1.47;72.39;96716.56;4944292;29;20054;-88
2022/01/07 10:16:51;;;;;;;13.80;8.88;;;;;;;1.52;71.64;96722.97;4941878;29;20051;-88
2022/01/07 10:19:32;;;;;;;19.60;10.82;;;;;;;1.59;73.86;96716.38;4939063;29;20048;-89
2022/01/07 10:22:01;;;;;;;14.85;9.68;;;;;;;1.72;72.02;96718.78;4937946;29;20059;-83
2022/01/07 10:24:29;;;;;;;12.98;9.18;;;;;;;1.89;71.62;96712.28;4938568;29;20059;-88
2022/01/07 10:27:12;;;;;;;13.02;8.80;;;;;;;2.06;68.74;96709.16;4945677;28;20063;-87
2022/01/07 10:29:41;;;;;;;13.98;8.98;;;;;;;2.11;70.57;96705.38;4939408;29;20055;-84
2022/01/07 10:32:24;;;;;;;26.05;15.75;;;;;;;2.17;71.32;96710.84;4940804;29;20060;-83
2022/01/07 10:35:06;;;;;;;11.93;8.25;;;;;;;2.20;70.85;96700.28;4938448;29;20056;-84
2022/01/07 10:37:34;;;;;;;10.65;7.20;;;;;;;2.22;70.35;96695.03;4938092;29;20055;-85
2022/01/07 10:40:02;;;;;;;11.52;7.68;;;;;;;2.21;69.81;96693.41;4938847;29;20051;-79
2022/01/07 10:42:30;;;;;;;13.90;8.05;;;;;;;2.10;69.15;96686.56;4938342;29;20056;-81
2022/01/07 10:45:00;;;;;;;12.82;8.93;;;;;;;2.09;69.34;96678.97;4939455;29;20063;-87
2022/01/07 10:47:29;;;;;;;14.25;9.05;;;;;;;2.14;71.35;96687.91;4938706;29;20494;-84
2022/01/07 10:50:15;;;;;;;13.57;7.97;;;;;;;2.20;70.24;96676.31;4938736;29;20078;-81
2022/01/07 10:52:43;;;;;;;11.73;8.07;;;;;;;2.22;71.25;96670.09;4941979;29;20528;-81
2022/01/07 10:55:13;;;;;;;13.02;8.57;;;;;;;2.27;72.22;96667.13;4940631;29;20059;-79
2022/01/07 10:57:44;;;;;;;12.25;8.95;;;;;;;2.33;70.69;96665.81;4941749;29;20052;-79
2022/01/07 11:00:13;;;;;;;14.55;9.05;;;;;;;2.30;70.06;96668.66;4940631;29;20051;-83
2022/01/07 11:02:41;;;;;;;14.25;9.55;;;;;;;2.30;70.51;96661.75;4941070;29;20063;-83
2022/01/07 11:05:09;;;;;;;13.80;8.88;;;;;;;2.31;69.76;96658.22;4941866;29;20409;-83
2022/01/07 11:07:37;;;;;;;14.40;9.45;;;;;;;2.33;69.87;96665.81;4940483;29;20055;-82
2022/01/07 11:10:07;;;;;;;15.50;9.57;;;;;;;2.33;71.79;96661.47;4941058;29;20058;-79
2022/01/07 11:12:36;;;;;;;11.00;7.43;;;;;;;2.36;70.89;96660.41;4940937;29;20601;-88
2022/01/07 11:15:08;;;;;;;15.23;8.88;;;;;;;2.35;71.52;96653.63;4941407;29;20048;-87
2022/01/07 11:17:37;;;;;;;12.55;8.75;;;;;;;2.34;71.05;96652.00;4941791;29;20123;-78
2022/01/07 11:20:06;;;;;;;12.13;8.40;;;;;;;2.28;70.81;96653.34;4941494;29;20048;-85
2022/01/07 11:22:38;;;;;;;11.52;8.55;;;;;;;2.21;71.62;96644.50;4945474;29;20055;-86
2022/01/07 11:25:13;;;;;;;12.55;8.48;;;;;;;2.18;70.43;96647.31;4946481;29;20047;-83
2022/01/07 11:27:54;;;;;;;13.57;9.25;;;;;;;2.12;70.36;96642.69;4952635;29;20111;-89
2022/01/07 11:30:28;;;;;;;12.68;8.48;;;;;;;2.09;71.09;96648.09;4950460;29;20135;-90
2022/01/07 11:33:03;;;;;;;13.75;8.23;;;;;;;2.09;70.79;96648.09;4943236;29;20525;-85
2022/01/07 11:35:47;;;;;;;12.30;8.82;;;;;;;2.05;69.93;96640.59;4946927;29;20510;-86
2022/01/07 11:38:34;;;;;;;14.82;9.82;;;;;;;2.01;70.75;96641.00;4946617;29;20076;-85
2022/01/07 11:41:05;;;;;;;12.48;7.93;;;;;;;1.99;71.90;96640.31;4924145;29;20060;-84